»·PEaware :: N47MP L52-67L

N47MP :: L52-67L

FLIGHT INFORMATION

Flight Status: Arrived
Operator: Privately registered:
United States
More flights under this callsign
Pilot: Mark P. (13279)
Aircraft: Unknown
(EA55)
More flights by this aircraft type
Origin: L52 Oceano Co
United States
Destination: 67L Mesquite
United States
More flights between these airports :: More routes between these airports
Route: PMD HEC LAS
File this flight plan on PilotEdge
Remarks:
Altitude:
(Current/Filed)
17,500ft
Speed:
(Current/Filed)
370kts
Departed: 16-Dec-16 09:08 PM
Arrived: 16-Dec-16 10:16 PM
Distance/Time
Traveled:
335nm/1:08
Distance/Time
To Go:
Arrived

Flight Plot

Page will automatically refresh every two minutes.


Map Options




Map Legend


Flown Route
Filed Route
Departure Airport
Arrival Airport
Navaid (VOR, NDB)
Fix

Horizontal Profiles

Position Reports

Time Latitude Longitude Heading Altitude Ground
Speed
16-Dec-16 20:54 35.103551 -120.624830 32 18ft 0kts
16-Dec-16 20:55 35.103551 -120.624830 32 18ft 0kts
16-Dec-16 20:56 35.103551 -120.624830 32 18ft 0kts
16-Dec-16 20:57 35.103551 -120.624830 32 18ft 0kts
16-Dec-16 20:58 35.103601 -120.624797 20 18ft 1kts
16-Dec-16 20:59 35.103355 -120.625426 223 18ft 7kts
16-Dec-16 21:00 35.089169 -120.591596 95 1206ft 215kts
16-Dec-16 21:01 35.078905 -120.506476 97 5453ft 275kts
16-Dec-16 21:02 35.064019 -120.411462 98 9402ft 298kts
16-Dec-16 21:03 35.045730 -120.302022 99 10439ft 360kts
16-Dec-16 21:04 35.024810 -120.180388 99 11512ft 370kts
16-Dec-16 21:05 35.002888 -120.055880 99 12318ft 379kts
16-Dec-16 21:06 34.980319 -119.928896 99 12924ft 387kts
16-Dec-16 21:07 34.958549 -119.806378 102 13903ft 365kts
16-Dec-16 21:08 34.936610 -119.685262 102 14159ft 366kts
16-Dec-16 21:09 34.915920 -119.571117 102 15674ft 350kts
16-Dec-16 21:10 34.894756 -119.455021 102 16513ft 355kts
16-Dec-16 21:11 34.873235 -119.337499 102 17183ft 358kts
16-Dec-16 21:12 34.852070 -119.219927 102 17381ft 368kts
16-Dec-16 21:13 34.829584 -119.097867 102 17381ft 371kts
16-Dec-16 21:14 34.812108 -119.004031 101 17367ft 377kts
16-Dec-16 21:15 34.789188 -118.880967 102 17372ft 422kts
16-Dec-16 21:16 34.764713 -118.751094 104 17349ft 432kts
16-Dec-16 21:17 34.738920 -118.615559 104 17364ft 433kts
16-Dec-16 21:18 34.712415 -118.476792 104 17403ft 434kts
16-Dec-16 21:19 34.687074 -118.345014 105 17449ft 434kts
16-Dec-16 21:20 34.660865 -118.206696 104 17423ft 434kts
16-Dec-16 21:21 34.636193 -118.066422 89 17393ft 435kts
16-Dec-16 21:22 34.647521 -117.923075 81 17397ft 434kts
16-Dec-16 21:23 34.662487 -117.779950 80 17410ft 433kts
16-Dec-16 21:24 34.677874 -117.635605 80 17568ft 432kts
16-Dec-16 21:25 34.693024 -117.492585 80 17570ft 434kts
16-Dec-16 21:26 34.708201 -117.347734 81 17571ft 435kts
16-Dec-16 21:27 34.723479 -117.205355 81 17560ft 434kts
16-Dec-16 21:28 34.738416 -117.060787 81 17547ft 435kts
16-Dec-16 21:29 34.753145 -116.915763 82 17513ft 438kts
16-Dec-16 21:30 34.767774 -116.768819 83 17503ft 440kts
16-Dec-16 21:31 34.782362 -116.620786 83 17506ft 441kts
16-Dec-16 21:32 34.803409 -116.475007 55 17497ft 435kts
16-Dec-16 21:33 34.887173 -116.374859 33 17510ft 421kts
16-Dec-16 21:34 34.975673 -116.285310 33 17476ft 412kts
16-Dec-16 21:35 35.062834 -116.197977 34 17452ft 401kts
16-Dec-16 21:36 35.133094 -116.127358 34 17452ft 397kts
16-Dec-16 21:37 35.217471 -116.042360 33 17453ft 383kts
16-Dec-16 21:38 35.299695 -115.959386 33 17454ft 384kts
16-Dec-16 21:39 35.382079 -115.875983 33 17439ft 384kts
16-Dec-16 21:40 35.464455 -115.792358 33 17399ft 385kts
16-Dec-16 21:41 35.546651 -115.708654 33 17358ft 385kts
16-Dec-16 21:42 35.628716 -115.624869 33 17338ft 385kts
16-Dec-16 21:43 35.710605 -115.541029 33 17339ft 385kts
16-Dec-16 21:44 35.792677 -115.456782 33 17340ft 385kts
16-Dec-16 21:45 35.874724 -115.372327 33 17337ft 385kts
16-Dec-16 21:46 35.954862 -115.290294 34 17324ft 385kts
16-Dec-16 21:47 36.036076 -115.206565 34 17324ft 386kts
16-Dec-16 21:48 36.109102 -115.120302 46 16925ft 401kts
16-Dec-16 21:49 36.180270 -115.014334 47 16018ft 408kts
16-Dec-16 21:50 36.250092 -114.911830 49 15149ft 408kts
16-Dec-16 21:51 36.321218 -114.807321 49 14260ft 401kts
16-Dec-16 21:52 36.392127 -114.703001 49 13368ft 393kts
16-Dec-16 21:53 36.461554 -114.600581 49 12487ft 386kts
16-Dec-16 21:54 36.529850 -114.499537 49 11611ft 380kts
16-Dec-16 21:55 36.597355 -114.400049 48 10361ft 365kts
16-Dec-16 21:56 36.655871 -114.315382 47 8281ft 320kts
16-Dec-16 21:57 36.712062 -114.234449 46 6275ft 303kts
16-Dec-16 21:58 36.757790 -114.149414 56 4612ft 290kts
16-Dec-16 21:59 36.798995 -114.065829 56 3552ft 252kts
16-Dec-16 22:00 36.836595 -114.023264 8 2979ft 141kts
16-Dec-16 22:01 36.854759 -114.025999 263 2031ft 59kts
16-Dec-16 22:06 36.857437 -114.028648 251 2675ft 100kts
16-Dec-16 22:07 36.839667 -114.052051 207 1984ft 94kts
16-Dec-16 22:08 36.834116 -114.057516 318 1979ft 7kts
16-Dec-16 22:09 36.834234 -114.057364 122 1979ft 0kts
16-Dec-16 22:10 36.834234 -114.057364 122 1979ft 0kts
16-Dec-16 22:11 36.834234 -114.057364 122 1979ft 0kts
16-Dec-16 22:12 36.834234 -114.057364 122 1979ft 0kts
16-Dec-16 22:13 36.834234 -114.057364 122 1979ft 0kts
16-Dec-16 22:14 36.834234 -114.057364 122 1979ft 0kts
16-Dec-16 22:15 36.834234 -114.057364 122 1979ft 0kts

Navigation Log

Ident Type
Flight plan parsing failed, navigation log unavailable